Time;durP1;ratioP1;P1;durP2;ratioP2;P2;SDS_P1;SDS_P2;PMS_P1;PMS_P2;Temp;Humidity;BMP_temperature;BMP_pressure;BME280_temperature;BME280_humidity;BME280_pressure;Samples;Min_cycle;Max_cycle;Signal;HPM_P1;HPM_P2
2022/04/04 00:02:35;;;;;;;5.80;2.67;;;;;;;1.19;87.52;101028.47;6072693;28;20104;-68
2022/04/04 00:05:30;;;;;;;9.13;2.77;;;;;;;1.18;87.49;101025.94;6073457;28;20068;-72
2022/04/04 00:08:26;;;;;;;10.02;3.22;;;;;;;1.28;87.79;101026.31;6073408;28;20041;-70
2022/04/04 00:11:21;;;;;;;4.83;2.50;;;;;;;1.23;87.32;101025.69;6072405;28;20036;-71
2022/04/04 00:14:16;;;;;;;8.47;2.67;;;;;;;1.19;87.60;101023.25;6073148;28;20025;-71
2022/04/04 00:17:12;;;;;;;5.70;2.78;;;;;;;1.16;87.41;101027.78;6077431;28;20037;-70
2022/04/04 00:20:08;;;;;;;5.13;2.70;;;;;;;1.15;87.53;101021.72;6072627;28;20033;-71
2022/04/04 00:23:04;;;;;;;6.53;2.90;;;;;;;1.18;87.69;101026.78;6072850;28;20036;-71
2022/04/04 00:25:59;;;;;;;6.72;2.72;;;;;;;1.21;87.36;101017.94;6073001;28;20029;-69
2022/04/04 00:28:55;;;;;;;8.68;2.92;;;;;;;1.18;87.18;101012.88;6073302;28;20450;-69
2022/04/04 00:31:51;;;;;;;6.35;2.15;;;;;;;1.25;87.74;101008.19;6072456;28;20171;-70
2022/04/04 00:34:46;;;;;;;6.15;2.90;;;;;;;1.29;87.78;101012.31;6073155;28;20048;-71
2022/04/04 00:37:42;;;;;;;6.10;3.33;;;;;;;1.31;87.87;101007.84;6072865;28;20037;-70
2022/04/04 00:40:38;;;;;;;7.22;3.03;;;;;;;1.32;86.75;101002.56;6072855;28;20160;-68
2022/04/04 00:43:33;;;;;;;8.60;3.70;;;;;;;1.37;86.88;101002.31;6077470;28;20040;-69
2022/04/04 00:46:29;;;;;;;6.17;3.00;;;;;;;1.39;87.23;101005.69;6077855;28;20026;-70
2022/04/04 00:49:24;;;;;;;6.93;3.23;;;;;;;1.37;87.13;100997.09;6077838;28;20060;-70
2022/04/04 00:52:20;;;;;;;5.35;2.65;;;;;;;1.36;87.08;100996.25;6075784;28;20512;-71
2022/04/04 00:55:15;;;;;;;6.90;3.27;;;;;;;1.36;87.39;100993.63;6076930;28;20041;-69
2022/04/04 00:58:13;;;;;;;6.70;3.33;;;;;;;1.39;86.67;100995.22;6077322;28;20268;-70
2022/04/04 01:01:08;;;;;;;7.05;3.00;;;;;;;1.40;86.55;100986.47;6065609;28;20465;-71
2022/04/04 01:04:04;;;;;;;6.47;3.45;;;;;;;1.41;87.18;100985.56;6076990;28;20124;-69
2022/04/04 01:07:00;;;;;;;5.97;3.20;;;;;;;1.34;87.34;100974.59;6077649;28;20057;-70
2022/04/04 01:09:55;;;;;;;8.40;3.28;;;;;;;1.40;87.26;100971.66;6077306;28;20175;-70
2022/04/04 01:12:53;;;;;;;12.60;3.30;;;;;;;1.41;86.90;100967.28;6076294;28;20076;-69
2022/04/04 01:15:48;;;;;;;8.45;3.80;;;;;;;1.46;87.16;100963.50;6077151;28;20387;-71
2022/04/04 01:18:44;;;;;;;6.43;3.15;;;;;;;1.45;87.53;100963.56;6076878;28;20025;-69
2022/04/04 01:21:39;;;;;;;8.00;3.75;;;;;;;1.46;86.23;100960.88;6076363;28;20547;-71
2022/04/04 01:24:37;;;;;;;6.23;3.47;;;;;;;1.42;87.04;100958.50;6076731;28;20037;-69
2022/04/04 01:27:32;;;;;;;8.20;3.38;;;;;;;1.39;87.27;100953.44;6076861;28;20103;-71
2022/04/04 01:30:28;;;;;;;7.28;3.55;;;;;;;1.42;86.91;100946.28;6075886;28;20033;-70
2022/04/04 01:33:23;;;;;;;6.82;3.42;;;;;;;1.38;86.83;100949.16;6076624;28;20469;-70
2022/04/04 01:36:18;;;;;;;8.43;3.90;;;;;;;1.32;87.59;100949.47;6077104;28;20044;-70
2022/04/04 01:39:14;;;;;;;8.98;3.83;;;;;;;1.34;87.08;100940.63;6076209;28;20431;-71
2022/04/04 01:42:10;;;;;;;10.52;3.97;;;;;;;1.37;86.76;100934.41;6074551;28;20469;-70
2022/04/04 01:45:07;;;;;;;9.17;3.80;;;;;;;1.40;87.32;100929.00;6076212;28;20052;-69
2022/04/04 01:48:02;;;;;;;8.90;3.90;;;;;;;1.32;87.08;100920.75;6076236;28;20052;-70
2022/04/04 01:50:58;;;;;;;6.55;3.22;;;;;;;1.28;87.21;100916.63;6075581;28;20676;-71
2022/04/04 01:53:53;;;;;;;8.97;3.93;;;;;;;1.34;86.96;100913.66;6076450;28;20034;-71
2022/04/04 01:56:49;;;;;;;9.90;4.10;;;;;;;1.33;87.14;100901.53;6076416;28;20029;-69
2022/04/04 01:59:44;;;;;;;7.03;3.22;;;;;;;1.32;87.34;100899.84;6075492;28;20067;-70
2022/04/04 02:02:39;;;;;;;6.97;3.70;;;;;;;1.31;87.70;100892.94;6075588;28;20481;-70
2022/04/04 02:05:35;;;;;;;7.30;3.57;;;;;;;1.30;87.83;100881.66;6076011;28;20280;-70
2022/04/04 02:08:33;;;;;;;7.15;3.33;;;;;;;1.32;87.50;100886.78;6074881;28;20056;-70
2022/04/04 02:11:29;;;;;;;9.73;3.17;;;;;;;1.32;87.36;100877.19;6075687;28;20036;-71
2022/04/04 02:14:24;;;;;;;8.30;3.78;;;;;;;1.33;87.25;100885.88;6075027;28;20034;-71
2022/04/04 02:17:19;;;;;;;10.37;4.63;;;;;;;1.34;87.08;100871.88;6075861;28;20366;-70
2022/04/04 02:20:15;;;;;;;10.50;3.47;;;;;;;1.34;87.71;100872.72;6075227;28;20295;-68
2022/04/04 02:23:10;;;;;;;6.80;3.67;;;;;;;1.34;86.98;100859.66;6075289;28;20547;-70
2022/04/04 02:26:05;;;;;;;7.20;3.83;;;;;;;1.32;87.53;100852.84;6076023;28;20038;-70
2022/04/04 02:29:01;;;;;;;8.38;4.13;;;;;;;1.34;87.50;100856.19;6074846;28;20040;-70
2022/04/04 02:31:56;;;;;;;8.33;3.57;;;;;;;1.32;86.88;100853.69;6074887;28;20148;-71
2022/04/04 02:34:52;;;;;;;6.30;3.03;;;;;;;1.38;87.08;100858.56;6075411;28;20025;-69
2022/04/04 02:37:47;;;;;;;7.95;3.65;;;;;;;1.41;87.10;100850.56;6074758;28;20506;-71
2022/04/04 02:40:43;;;;;;;8.17;3.83;;;;;;;1.45;86.92;100844.22;6073410;28;20029;-70
2022/04/04 02:43:39;;;;;;;7.40;3.40;;;;;;;1.40;86.58;100824.53;6074944;28;20037;-70
2022/04/04 02:46:35;;;;;;;7.35;3.72;;;;;;;1.45;86.25;100830.31;6075489;28;20534;-71
2022/04/04 02:49:30;;;;;;;11.20;3.90;;;;;;;1.45;86.47;100818.13;6074870;28;20030;-70
2022/04/04 02:52:26;;;;;;;11.00;3.67;;;;;;;1.47;86.49;100823.28;6073936;28;20091;-71
2022/04/04 02:58:35;;;;;;;9.38;4.30;;;;;;;1.45;86.21;100806.81;6074605;28;20488;-69
2022/04/04 03:01:31;;;;;;;8.53;3.90;;;;;;;1.36;86.88;100795.09;6073944;28;20033;-68
2022/04/04 03:04:27;;;;;;;10.07;4.22;;;;;;;1.38;87.02;100789.81;6073782;28;20372;-70
2022/04/04 03:07:22;;;;;;;11.18;5.10;;;;;;;1.35;87.20;100790.81;6074714;28;20037;-70
2022/04/04 03:10:18;;;;;;;11.13;5.17;;;;;;;1.37;86.28;100783.75;6073834;28;20033;-70
2022/04/04 03:13:13;;;;;;;11.82;5.22;;;;;;;1.39;86.68;100781.03;6074281;28;20069;-69
2022/04/04 03:16:08;;;;;;;10.23;4.77;;;;;;;1.38;87.04;100780.22;6074792;28;20056;-70
2022/04/04 03:19:04;;;;;;;10.80;5.40;;;;;;;1.37;86.58;100782.88;6073885;28;20295;-70
2022/04/04 03:21:59;;;;;;;9.67;4.67;;;;;;;1.40;86.38;100772.28;6073327;28;20045;-70
2022/04/04 03:24:54;;;;;;;13.10;5.43;;;;;;;1.42;86.26;100775.63;6074276;28;20050;-69
2022/04/04 03:27:50;;;;;;;11.53;5.37;;;;;;;1.41;86.63;100768.75;6074182;28;20488;-70
2022/04/04 03:30:46;;;;;;;12.23;5.63;;;;;;;1.38;86.25;100763.69;6079595;28;20148;-71
2022/04/04 03:33:43;;;;;;;10.67;5.17;;;;;;;1.40;86.37;100748.75;6075297;28;20044;-71
2022/04/04 03:36:39;;;;;;;13.88;5.82;;;;;;;1.36;86.18;100750.69;6074180;28;20037;-68
2022/04/04 03:39:34;;;;;;;13.10;5.60;;;;;;;1.32;86.52;100743.13;6074068;28;20106;-71
2022/04/04 03:42:30;;;;;;;11.13;5.60;;;;;;;1.25;86.71;100736.59;6073113;28;20040;-70
2022/04/04 03:45:26;;;;;;;12.10;6.05;;;;;;;1.23;86.60;100735.81;6074157;28;20029;-69
2022/04/04 03:48:21;;;;;;;11.23;5.53;;;;;;;1.20;86.98;100735.06;6073386;28;20039;-70
2022/04/04 03:51:16;;;;;;;12.30;5.23;;;;;;;1.15;86.43;100726.66;6073233;28;20086;-70
2022/04/04 03:54:12;;;;;;;13.60;6.77;;;;;;;1.08;87.20;100724.47;6073329;28;20033;-70
2022/04/04 03:57:07;;;;;;;13.00;5.70;;;;;;;1.08;87.25;100724.47;6073731;28;20116;-69
2022/04/04 04:00:05;;;;;;;12.23;6.20;;;;;;;1.08;86.92;100722.72;6073283;28;20086;-69
2022/04/04 04:03:00;;;;;;;15.77;6.60;;;;;;;1.03;87.15;100706.44;6073111;28;20114;-70
2022/04/04 04:06:11;;;;;;;15.00;7.30;;;;;;;1.09;87.21;100706.09;6073641;28;20033;-69
2022/04/04 04:09:06;;;;;;;19.48;8.20;;;;;;;1.05;87.39;100707.22;6073599;28;20422;-69
2022/04/04 04:12:01;;;;;;;20.93;6.90;;;;;;;1.18;86.94;100700.38;6072793;28;20033;-69
2022/04/04 04:14:57;;;;;;;14.68;7.82;;;;;;;1.20;86.37;100693.28;6073366;28;20021;-69
2022/04/04 04:17:53;;;;;;;18.33;8.27;;;;;;;1.14;85.98;100698.03;6073326;28;20094;-69
2022/04/04 04:20:48;;;;;;;16.50;8.25;;;;;;;1.10;86.51;100686.91;6072568;28;20465;-69
2022/04/04 04:23:44;;;;;;;15.15;8.20;;;;;;;1.17;85.98;100685.63;6073151;28;20034;-68
2022/04/04 04:26:39;;;;;;;17.77;8.23;;;;;;;1.13;86.59;100680.66;6073362;28;20480;-70
2022/04/04 04:29:34;;;;;;;14.37;7.83;;;;;;;1.13;86.11;100676.28;6073171;28;20356;-71
2022/04/04 04:32:30;;;;;;;19.27;8.20;;;;;;;1.15;86.54;100673.56;6063193;28;20037;-69
2022/04/04 04:35:25;;;;;;;15.18;7.45;;;;;;;1.19;86.15;100665.50;6072901;28;20087;-70
2022/04/04 04:38:21;;;;;;;14.10;7.53;;;;;;;1.24;85.78;100667.84;6073267;28;20033;-71
2022/04/04 04:41:16;;;;;;;17.60;8.27;;;;;;;1.27;85.33;100659.00;6072482;28;20036;-70
2022/04/04 04:44:11;;;;;;;17.57;7.33;;;;;;;1.31;85.07;100657.88;6072721;28;20033;-70
2022/04/04 04:47:07;;;;;;;18.83;7.93;;;;;;;1.31;85.43;100653.47;6073276;28;20065;-68
2022/04/04 04:50:04;;;;;;;15.73;7.35;;;;;;;1.25;85.41;100650.41;6072958;28;20279;-70
2022/04/04 04:53:00;;;;;;;15.85;7.15;;;;;;;1.30;85.18;100645.75;6072896;28;20100;-71
2022/04/04 04:55:55;;;;;;;13.47;7.73;;;;;;;1.29;84.88;100633.63;6073042;28;20038;-69
2022/04/04 04:58:51;;;;;;;16.70;7.70;;;;;;;1.34;85.20;100628.97;6072646;28;20755;-69
2022/04/04 05:01:46;;;;;;;15.75;7.57;;;;;;;1.35;84.63;100633.25;6072324;28;20392;-70
2022/04/04 05:04:41;;;;;;;15.97;8.03;;;;;;;1.38;84.71;100627.88;6072927;28;20507;-70
2022/04/04 05:07:37;;;;;;;16.60;7.17;;;;;;;1.38;84.46;100606.97;6072761;28;20068;-69
2022/04/04 05:10:32;;;;;;;14.67;6.43;;;;;;;1.46;84.08;100602.13;6074513;28;20045;-68
2022/04/04 05:13:28;;;;;;;13.60;7.25;;;;;;;1.47;83.69;100604.63;6072940;28;20042;-68
2022/04/04 05:16:28;;;;;;;16.83;6.77;;;;;;;1.54;84.02;100605.13;6073184;28;20033;-69
2022/04/04 05:19:23;;;;;;;15.55;7.75;;;;;;;1.56;83.55;100591.03;6067332;28;20120;-69
2022/04/04 05:22:19;;;;;;;15.55;7.35;;;;;;;1.65;83.49;100584.41;6065934;28;20633;-68
2022/04/04 05:25:14;;;;;;;17.63;8.60;;;;;;;1.74;82.86;100583.84;6065038;28;20034;-70
2022/04/04 05:28:10;;;;;;;16.67;7.93;;;;;;;1.80;82.71;100567.78;6071398;28;20040;-69
2022/04/04 05:31:05;;;;;;;13.63;7.10;;;;;;;1.87;82.23;100560.44;6075759;28;20041;-68
2022/04/04 05:34:04;;;;;;;12.37;6.47;;;;;;;1.89;81.42;100556.78;6076101;28;20057;-68
2022/04/04 05:36:59;;;;;;;11.30;5.65;;;;;;;1.98;81.41;100571.91;6073320;28;20037;-70
2022/04/04 05:39:55;;;;;;;13.52;5.90;;;;;;;2.03;80.24;100567.22;6075876;28;20045;-70
2022/04/04 05:42:50;;;;;;;12.95;6.10;;;;;;;2.06;80.17;100564.41;6074514;28;20060;-69
2022/04/04 05:45:48;;;;;;;11.77;6.85;;;;;;;2.12;79.75;100556.16;6074681;28;20037;-69
2022/04/04 05:48:44;;;;;;;10.13;5.57;;;;;;;2.13;80.35;100542.16;6075729;28;20025;-70
2022/04/04 05:51:39;;;;;;;10.57;5.35;;;;;;;2.20;78.76;100535.59;6076060;28;20043;-68
2022/04/04 05:54:34;;;;;;;14.20;5.57;;;;;;;2.27;78.24;100523.81;6075206;28;20057;-70
2022/04/04 05:57:35;;;;;;;10.87;4.90;;;;;;;2.36;78.40;100514.56;6076100;28;20346;-69
2022/04/04 06:00:31;;;;;;;10.27;5.28;;;;;;;2.47;77.05;100519.09;6074543;28;20033;-69
2022/04/04 06:03:26;;;;;;;13.15;5.05;;;;;;;2.51;76.79;100517.94;6076316;28;20028;-69
2022/04/04 06:06:22;;;;;;;9.32;4.35;;;;;;;2.60;76.44;100506.88;6075928;28;20524;-70
2022/04/04 06:09:18;;;;;;;11.85;4.80;;;;;;;2.63;75.82;100490.97;6074152;28;20029;-70
2022/04/04 06:12:13;;;;;;;9.50;4.43;;;;;;;2.70;75.79;100497.47;6074773;28;20092;-70
2022/04/04 06:15:10;;;;;;;10.93;4.30;;;;;;;2.78;74.53;100495.19;6076069;28;20037;-69
2022/04/04 06:18:06;;;;;;;9.43;4.35;;;;;;;2.87;75.01;100491.97;6074375;28;20029;-69
2022/04/04 06:21:02;;;;;;;9.93;4.45;;;;;;;2.92;74.74;100476.78;6073220;28;20021;-69
2022/04/04 06:23:58;;;;;;;12.88;4.47;;;;;;;3.05;73.92;100472.38;6072657;28;20033;-69
2022/04/04 06:26:53;;;;;;;9.33;3.83;;;;;;;3.04;73.69;100468.09;6074790;28;20044;-70
2022/04/04 06:29:49;;;;;;;10.83;4.27;;;;;;;3.06;73.54;100478.47;6075151;28;20028;-70
2022/04/04 06:32:45;;;;;;;10.25;4.43;;;;;;;3.14;72.52;100456.03;6073038;28;20041;-69
2022/04/04 06:35:40;;;;;;;8.30;3.40;;;;;;;3.24;72.62;100475.41;6074646;28;20040;-70
2022/04/04 06:38:35;;;;;;;9.90;3.87;;;;;;;3.30;71.75;100448.81;6072636;28;20044;-70
2022/04/04 06:41:31;;;;;;;7.97;3.78;;;;;;;3.33;71.61;100440.72;6073282;28;20287;-70
2022/04/04 06:44:26;;;;;;;10.88;3.53;;;;;;;3.37;71.23;100433.50;6073652;28;20130;-71
2022/04/04 06:47:22;;;;;;;9.20;3.50;;;;;;;3.41;70.24;100433.16;6073689;28;20052;-70
2022/04/04 06:50:17;;;;;;;7.77;3.70;;;;;;;3.48;69.68;100434.41;6073322;28;20378;-70
2022/04/04 06:53:13;;;;;;;6.73;3.20;;;;;;;3.54;69.96;100439.22;6074373;28;20040;-69
2022/04/04 06:56:08;;;;;;;8.98;3.30;;;;;;;3.67;68.39;100418.19;6072875;28;20283;-70
2022/04/04 06:59:03;;;;;;;9.03;3.60;;;;;;;3.66;68.39;100415.69;6074231;28;20059;-70
2022/04/04 07:01:59;;;;;;;7.22;3.45;;;;;;;3.72;67.44;100404.78;6072835;28;20481;-70
2022/04/04 07:04:54;;;;;;;9.47;3.90;;;;;;;3.84;67.47;100409.13;6073262;28;20477;-70
2022/04/04 07:07:49;;;;;;;8.70;3.80;;;;;;;3.88;67.53;100395.69;6073806;28;20065;-70
2022/04/04 07:10:45;;;;;;;7.15;3.78;;;;;;;3.94;66.90;100399.66;6072150;28;20033;-68
2022/04/04 07:13:40;;;;;;;10.43;3.50;;;;;;;3.98;67.11;100386.22;6073502;28;20041;-71
2022/04/04 07:16:35;;;;;;;6.60;3.03;;;;;;;4.00;65.78;100383.47;6073173;28;20032;-70
2022/04/04 07:19:33;;;;;;;8.50;3.37;;;;;;;3.99;66.50;100382.66;6073054;28;20029;-70
2022/04/04 07:22:34;;;;;;;7.88;4.00;;;;;;;3.97;66.40;100373.19;6073562;28;20401;-71
2022/04/04 07:25:29;;;;;;;6.60;3.55;;;;;;;4.12;66.51;100372.06;6074273;28;20033;-71
2022/04/04 07:28:25;;;;;;;7.67;3.73;;;;;;;4.20;66.23;100364.47;6077982;28;20029;-71
2022/04/04 07:31:20;;;;;;;7.13;3.92;;;;;;;4.26;66.05;100358.78;6071446;28;20030;-70
2022/04/04 07:34:16;;;;;;;6.50;3.40;;;;;;;4.37;65.15;100345.69;6074214;28;20477;-70
2022/04/04 07:37:11;;;;;;;8.27;3.70;;;;;;;4.49;64.38;100349.97;6073364;28;20319;-70
2022/04/04 07:40:08;;;;;;;6.67;2.97;;;;;;;4.57;63.42;100345.00;6073542;28;20033;-70
2022/04/04 07:43:03;;;;;;;8.00;3.60;;;;;;;4.68;63.44;100341.53;6073967;28;20033;-71
2022/04/04 07:45:59;;;;;;;6.85;3.05;;;;;;;4.87;63.26;100335.69;6073522;28;20037;-70
2022/04/04 07:48:55;;;;;;;8.98;3.40;;;;;;;4.88;63.03;100334.75;6073419;28;20034;-69
2022/04/04 07:51:50;;;;;;;6.78;3.47;;;;;;;4.93;61.57;100335.22;6072666;28;20042;-71
2022/04/04 07:54:45;;;;;;;7.37;3.40;;;;;;;4.85;62.98;100335.81;6073578;28;20611;-68
2022/04/04 07:57:41;;;;;;;8.67;3.63;;;;;;;4.77;61.91;100333.81;6073856;28;20037;-68
2022/04/04 08:00:37;;;;;;;5.88;3.00;;;;;;;4.66;62.07;100319.81;6072230;28;20414;-68
2022/04/04 08:03:32;;;;;;;7.57;3.37;;;;;;;4.76;62.38;100307.63;6073968;28;20042;-67
2022/04/04 08:06:27;;;;;;;8.10;3.17;;;;;;;4.81;62.54;100293.19;6072990;28;20276;-70
2022/04/04 08:09:22;;;;;;;6.50;3.30;;;;;;;4.74;61.86;100307.78;6073598;28;20064;-70
2022/04/04 08:12:18;;;;;;;6.97;3.30;;;;;;;4.67;62.30;100282.13;6071130;28;20034;-68
2022/04/04 08:15:13;;;;;;;8.10;3.40;;;;;;;4.70;61.91;100276.63;6072870;28;20033;-69
2022/04/04 08:18:08;;;;;;;6.35;3.25;;;;;;;4.85;60.84;100266.69;6072724;28;20431;-68
2022/04/04 08:21:04;;;;;;;9.03;2.87;;;;;;;4.93;60.78;100266.91;6071063;28;20099;-70
2022/04/04 08:23:59;;;;;;;7.20;3.60;;;;;;;4.96;60.66;100261.44;6073751;28;20099;-69
2022/04/04 08:26:54;;;;;;;9.73;3.60;;;;;;;5.08;60.60;100252.59;6072849;28;20116;-69
2022/04/04 08:29:52;;;;;;;6.70;3.60;;;;;;;5.06;60.11;100244.81;6073822;28;20041;-69
2022/04/04 08:32:48;;;;;;;9.15;3.63;;;;;;;5.00;59.77;100236.59;6071867;28;20041;-68
2022/04/04 08:35:45;;;;;;;6.53;3.40;;;;;;;5.19;59.85;100232.34;6073297;28;20365;-68
2022/04/04 08:38:41;;;;;;;7.53;3.47;;;;;;;5.18;59.10;100230.69;6072853;28;20037;-68
2022/04/04 08:41:37;;;;;;;7.43;3.40;;;;;;;5.25;59.24;100223.97;6072360;28;20033;-68
2022/04/04 08:44:36;;;;;;;6.15;3.13;;;;;;;5.34;58.32;100223.25;6073239;28;20030;-68
2022/04/04 08:47:33;;;;;;;9.98;3.63;;;;;;;5.36;58.03;100209.94;6072534;28;20041;-69
2022/04/04 08:50:28;;;;;;;6.85;3.72;;;;;;;5.43;57.52;100200.63;6072412;28;20392;-67
2022/04/04 08:53:23;;;;;;;11.37;3.60;;;;;;;5.34;57.57;100196.09;6072448;28;20034;-67
2022/04/04 08:56:21;;;;;;;8.00;3.53;;;;;;;5.41;57.72;100207.78;6072497;28;20678;-68
2022/04/04 08:59:17;;;;;;;8.35;3.63;;;;;;;5.40;57.44;100191.19;6072825;28;20034;-68
2022/04/04 09:02:13;;;;;;;6.30;3.25;;;;;;;5.38;57.52;100182.59;6073358;28;20103;-69
2022/04/04 09:05:09;;;;;;;6.85;3.22;;;;;;;5.38;56.58;100184.41;6077474;28;20030;-68
2022/04/04 09:08:06;;;;;;;7.90;3.13;;;;;;;5.21;57.17;100169.16;6077309;28;20025;-68
2022/04/04 09:11:01;;;;;;;6.60;3.05;;;;;;;5.39;57.66;100159.75;6076585;28;20037;-68
2022/04/04 09:14:06;;;;;;;5.83;2.67;;;;;;;5.49;56.73;100151.97;6077524;28;20487;-70
2022/04/04 09:17:01;;;;;;;6.13;2.85;;;;;;;5.55;56.88;100154.91;6076972;28;20100;-68
2022/04/04 09:19:57;;;;;;;5.78;2.50;;;;;;;5.62;56.54;100140.28;6076880;28;20026;-68
2022/04/04 09:22:52;;;;;;;6.38;2.83;;;;;;;5.61;55.96;100125.47;6075014;28;20049;-69
2022/04/04 09:25:48;;;;;;;8.23;2.60;;;;;;;5.49;56.52;100121.22;6076705;28;20041;-69
2022/04/04 09:28:44;;;;;;;7.57;2.63;;;;;;;5.24;57.51;100118.97;6077150;28;20045;-68
2022/04/04 09:31:52;;;;;;;7.75;2.72;;;;;;;5.33;57.92;100110.31;6076014;28;20029;-68
2022/04/04 09:35:02;;;;;;;7.60;2.55;;;;;;;5.34;59.17;100096.22;6076599;28;20045;-68
2022/04/04 09:37:57;;;;;;;4.60;2.50;;;;;;;5.28;58.43;100101.97;6075166;28;20033;-69
2022/04/04 09:40:53;;;;;;;6.00;2.63;;;;;;;5.22;60.32;100099.84;6075970;28;20540;-69
2022/04/04 09:43:53;;;;;;;5.43;2.58;;;;;;;5.18;60.76;100128.22;6075692;28;20037;-68
2022/04/04 09:46:48;;;;;;;7.15;2.97;;;;;;;4.82;62.08;100079.50;6076048;28;20033;-69
2022/04/04 09:49:43;;;;;;;6.70;2.57;;;;;;;4.77;62.77;100072.97;6076324;28;20033;-69
2022/04/04 09:52:57;;;;;;;8.60;3.43;;;;;;;4.78;63.62;100062.31;6075911;28;20381;-68
2022/04/04 09:55:57;;;;;;;7.30;3.00;;;;;;;4.79;64.18;100068.41;6076356;28;20401;-69
2022/04/04 09:58:52;;;;;;;5.25;2.78;;;;;;;4.73;65.07;100053.13;6075966;28;20112;-69
2022/04/04 10:01:48;;;;;;;8.88;3.72;;;;;;;4.52;65.06;100045.22;6079308;28;20053;-69
2022/04/04 10:04:44;;;;;;;7.93;3.85;;;;;;;4.50;67.12;100028.78;6077324;28;20041;-69
2022/04/04 10:07:40;;;;;;;9.00;3.38;;;;;;;4.62;66.93;100004.13;6076105;28;20044;-69
2022/04/04 10:10:36;;;;;;;8.13;4.07;;;;;;;4.61;67.14;100015.63;6091167;28;20021;-69
2022/04/04 10:13:31;;;;;;;9.43;3.90;;;;;;;4.55;67.82;100002.97;6075603;28;20041;-69
2022/04/04 10:16:27;;;;;;;8.17;3.67;;;;;;;4.59;68.61;99995.69;6075966;28;20056;-69
2022/04/04 10:19:25;;;;;;;7.85;3.03;;;;;;;4.65;68.70;99977.63;6075943;28;20052;-69
2022/04/04 10:22:21;;;;;;;6.93;3.13;;;;;;;4.67;69.55;99954.69;6074967;28;20480;-69
2022/04/04 10:25:18;;;;;;;8.43;3.47;;;;;;;4.58;69.15;99971.22;6075390;28;20036;-69
2022/04/04 10:28:26;;;;;;;9.05;3.78;;;;;;;4.67;68.78;99954.69;6074617;28;20026;-69
2022/04/04 10:31:21;;;;;;;;;;;;;;;4.68;67.49;99945.88;6074470;28;20546;-69
2022/04/04 10:34:19;;;;;;;7.50;3.50;;;;;;;4.70;68.39;99937.88;6074041;28;19913;-68
2022/04/04 10:37:14;;;;;;;9.90;3.75;;;;;;;4.78;67.95;99923.13;6074347;28;20043;-69
2022/04/04 10:40:32;;;;;;;9.43;4.13;;;;;;;4.76;68.25;99922.44;6073960;28;20037;-68
2022/04/04 10:43:32;;;;;;;8.50;3.85;;;;;;;4.84;68.73;99910.47;6071751;28;20037;-69
2022/04/04 10:46:27;;;;;;;7.20;3.75;;;;;;;5.20;67.93;99900.25;6073920;28;20037;-68
2022/04/04 10:49:24;;;;;;;8.73;3.63;;;;;;;5.20;67.42;99904.69;6074192;28;20036;-68
2022/04/04 10:52:22;;;;;;;11.32;4.25;;;;;;;5.10;66.91;99888.06;6073586;28;20053;-68
2022/04/04 10:55:42;;;;;;;7.85;4.13;;;;;;;5.12;66.64;99886.94;6073292;28;20036;-68
2022/04/04 10:58:37;;;;;;;8.82;3.85;;;;;;;5.10;67.27;99872.28;6074218;28;20099;-69
2022/04/04 11:01:34;;;;;;;7.63;3.77;;;;;;;4.89;67.60;99880.22;6073645;28;20037;-69
2022/04/04 11:04:31;;;;;;;8.63;3.60;;;;;;;4.85;68.71;99868.28;6072811;28;20036;-68
2022/04/04 11:07:41;;;;;;;14.13;4.72;;;;;;;4.72;68.96;99851.94;6073544;28;20037;-69
2022/04/04 11:10:40;;;;;;;9.73;4.22;;;;;;;4.54;70.18;99843.78;6069530;28;20034;-68
2022/04/04 11:13:36;;;;;;;9.10;4.65;;;;;;;4.44;71.84;99858.66;6074347;28;20076;-68
2022/04/04 11:17:08;;;;;;;11.82;4.88;;;;;;;4.38;72.62;99864.41;6074282;28;20049;-69
2022/04/04 11:20:21;;;;;;;9.38;4.18;;;;;;;4.40;72.43;99859.91;6068527;28;20029;-69
2022/04/04 11:23:17;;;;;;;9.00;4.57;;;;;;;4.29;74.55;99835.50;6073195;28;20096;-69
2022/04/04 11:26:18;;;;;;;14.13;4.40;;;;;;;4.13;75.88;99828.06;6073767;28;20029;-70
2022/04/04 11:29:19;;;;;;;9.30;4.88;;;;;;;4.05;77.07;99793.78;6074406;28;20068;-68
2022/04/04 11:32:16;;;;;;;12.02;5.68;;;;;;;3.97;77.74;99825.03;6077956;28;20052;-69
2022/04/04 11:35:23;;;;;;;8.10;4.82;;;;;;;3.98;78.69;99803.09;6085445;28;20036;-68
2022/04/04 11:38:22;;;;;;;12.38;5.95;;;;;;;4.00;77.43;99822.16;6079662;28;20038;-69
2022/04/04 11:41:20;;;;;;;8.48;5.03;;;;;;;3.98;77.92;99818.84;6073031;28;20029;-69
2022/04/04 11:44:24;;;;;;;8.55;4.72;;;;;;;3.98;79.47;99808.34;6073519;28;20092;-69
2022/04/04 11:47:19;;;;;;;8.55;4.45;;;;;;;3.95;78.38;99804.19;6073344;28;20044;-69
2022/04/04 11:50:16;;;;;;;11.80;5.33;;;;;;;3.94;79.21;99801.69;6072576;28;20049;-68
2022/04/04 11:53:16;;;;;;;10.10;4.82;;;;;;;3.83;80.27;99792.06;6073724;28;20029;-69
2022/04/04 11:56:20;;;;;;;13.70;6.13;;;;;;;3.72;81.57;99772.94;6073231;28;20036;-69
2022/04/04 11:59:16;;;;;;;11.68;6.22;;;;;;;3.63;82.01;99792.88;6073823;28;20506;-70
2022/04/04 12:02:13;;;;;;;12.18;6.13;;;;;;;3.60;83.19;99793.13;6071945;28;20030;-68
2022/04/04 12:05:12;;;;;;;13.15;7.05;;;;;;;3.53;83.70;99790.16;6073751;28;20072;-68
2022/04/04 12:08:08;;;;;;;12.35;6.68;;;;;;;3.47;84.93;99756.63;6072363;28;20044;-69
2022/04/04 12:11:05;;;;;;;13.57;7.22;;;;;;;3.41;85.67;99746.63;6072066;28;20029;-69
2022/04/04 12:14:01;;;;;;;12.65;7.03;;;;;;;3.43;85.64;99759.59;6072484;28;20096;-68
2022/04/04 12:16:56;;;;;;;13.52;6.78;;;;;;;3.40;86.11;99755.44;6072550;28;20068;-69
2022/04/04 12:19:52;;;;;;;12.82;6.95;;;;;;;3.33;85.73;99759.50;6072215;28;20037;-68
2022/04/04 12:26:03;;;;;;;12.52;6.22;;;;;;;3.32;87.27;99747.34;6071953;28;20452;-69
2022/04/04 12:28:59;;;;;;;11.90;6.45;;;;;;;3.35;87.37;99736.63;6072855;28;20033;-68
2022/04/04 12:31:55;;;;;;;14.83;7.03;;;;;;;3.33;86.73;99722.00;6071306;28;20025;-69
2022/04/04 12:35:09;;;;;;;12.10;6.05;;;;;;;3.33;86.97;99728.06;6072747;28;20029;-69
2022/04/04 12:38:04;;;;;;;13.50;6.30;;;;;;;3.33;87.99;99722.84;6075628;28;20025;-68
2022/04/04 12:41:15;;;;;;;14.13;6.85;;;;;;;3.31;88.25;99719.50;6077496;28;20036;-70
2022/04/04 12:44:11;;;;;;;15.57;7.70;;;;;;;3.28;88.90;99698.81;6076984;28;20029;-68
2022/04/04 12:47:09;;;;;;;16.92;7.75;;;;;;;3.23;89.13;99694.91;6076778;28;20037;-72
2022/04/04 12:50:12;;;;;;;11.32;6.18;;;;;;;3.23;88.91;99689.66;6076419;28;20045;-70
2022/04/04 12:53:10;;;;;;;19.77;7.70;;;;;;;3.19;89.08;99683.81;6077368;28;20033;-71
2022/04/04 12:56:06;;;;;;;13.75;7.20;;;;;;;3.27;89.67;99691.06;6077012;28;20090;-72
2022/04/04 12:59:07;;;;;;;16.08;6.85;;;;;;;3.24;90.21;99683.44;6077378;28;20477;-70
2022/04/04 13:02:05;;;;;;;15.10;6.72;;;;;;;3.21;90.35;99675.81;6075825;28;20041;-69
2022/04/04 13:05:23;;;;;;;11.43;6.05;;;;;;;3.19;90.08;99665.50;6076790;28;20037;-69
2022/04/04 13:08:21;;;;;;;12.55;6.78;;;;;;;3.27;90.03;99673.56;6065074;28;20033;-70
2022/04/04 13:11:16;;;;;;;10.63;6.13;;;;;;;3.12;90.14;99661.72;6075985;28;20044;-70
2022/04/04 13:14:12;;;;;;;10.40;5.73;;;;;;;3.16;90.82;99670.97;6076377;28;20041;-69
2022/04/04 13:17:07;;;;;;;12.60;6.22;;;;;;;3.14;90.07;99648.50;6076200;28;20060;-71
2022/04/04 13:20:09;;;;;;;12.75;6.50;;;;;;;3.09;90.45;99667.22;6075844;28;20030;-69
2022/04/04 13:23:06;;;;;;;9.70;5.40;;;;;;;3.13;90.55;99663.38;6075575;28;20029;-71
2022/04/04 13:26:01;;;;;;;13.27;6.35;;;;;;;3.11;90.50;99638.25;6076442;28;20026;-71
2022/04/04 13:28:57;;;;;;;10.70;4.77;;;;;;;3.11;91.01;99649.56;6076649;28;20041;-68
2022/04/04 13:31:52;;;;;;;12.93;5.57;;;;;;;3.08;91.22;99628.88;6075778;28;20512;-71
2022/04/04 13:34:47;;;;;;;8.70;5.20;;;;;;;3.14;91.13;99623.13;6076767;28;20041;-69
2022/04/04 13:37:43;;;;;;;11.83;7.00;;;;;;;3.14;90.63;99628.38;6064280;28;20541;-70
2022/04/04 13:40:39;;;;;;;10.43;5.75;;;;;;;3.16;91.38;99613.34;6073993;28;20375;-71
2022/04/04 13:43:34;;;;;;;13.95;5.93;;;;;;;3.21;90.88;99605.94;6076372;28;20084;-70
2022/04/04 13:46:30;;;;;;;10.33;5.20;;;;;;;3.24;91.38;99597.84;6076007;28;20029;-70
2022/04/04 13:49:28;;;;;;;11.00;4.90;;;;;;;3.25;91.27;99598.69;6076139;28;20306;-71
2022/04/04 13:52:25;;;;;;;13.38;5.68;;;;;;;3.21;91.35;99577.13;6075717;28;20040;-70
2022/04/04 13:55:21;;;;;;;9.20;5.10;;;;;;;3.25;91.44;99583.78;6076792;28;20472;-71
2022/04/04 13:58:16;;;;;;;9.57;5.13;;;;;;;3.29;91.33;99581.75;6076166;28;20064;-70